createdAt,value
2019-02-28T00:02:14.512Z,54.24
2019-02-28T00:04:42.781Z,54.71
2019-02-28T00:07:11.112Z,55.21
2019-02-28T00:09:39.335Z,54.66
2019-02-28T00:12:13.193Z,54.79
2019-02-28T00:14:38.271Z,54.74
2019-02-28T00:17:09.168Z,54.73
2019-02-28T00:19:36.570Z,54.37
2019-02-28T00:22:04.862Z,54.63
2019-02-28T00:24:33.138Z,54.71
2019-02-28T00:27:01.414Z,54.74
2019-02-28T00:29:33.450Z,54.69
2019-02-28T00:31:59.680Z,55.25
2019-02-28T00:34:27.969Z,54.57
2019-02-28T00:36:56.262Z,54.00
2019-02-28T00:39:24.522Z,54.17
2019-02-28T00:41:52.811Z,54.79
2019-02-28T00:44:21.070Z,54.62
2019-02-28T00:46:49.357Z,54.74
2019-02-28T00:49:17.643Z,54.79
2019-02-28T00:51:45.958Z,54.11
2019-02-28T00:54:14.210Z,54.53
2019-02-28T00:56:42.472Z,55.45
2019-02-28T00:59:10.738Z,55.02
2019-02-28T01:01:39.011Z,55.01
2019-02-28T01:04:07.294Z,56.30
2019-02-28T01:06:35.547Z,55.39
2019-02-28T01:09:04.794Z,54.92
2019-02-28T01:11:33.051Z,54.87
2019-02-28T01:14:02.346Z,54.56
2019-02-28T01:16:30.751Z,54.25
2019-02-28T01:18:59.035Z,54.64
2019-02-28T01:21:27.286Z,54.34
2019-02-28T01:23:55.568Z,54.51
2019-02-28T01:26:23.856Z,54.91
2019-02-28T01:28:52.169Z,54.57
2019-02-28T01:31:20.455Z,54.37
2019-02-28T01:33:48.721Z,54.60
2019-02-28T01:36:16.980Z,54.81
2019-02-28T01:38:45.279Z,54.90
2019-02-28T01:41:13.551Z,55.04
2019-02-28T01:43:41.825Z,55.65
2019-02-28T01:46:10.074Z,55.76
2019-02-28T01:48:38.483Z,56.69
2019-02-28T01:51:06.737Z,56.03
2019-02-28T01:53:34.991Z,55.82
2019-02-28T01:56:03.319Z,56.04
2019-02-28T01:58:31.536Z,55.57
2019-02-28T02:00:59.822Z,55.28
2019-02-28T02:03:28.073Z,55.13
2019-02-28T02:05:56.360Z,54.69
2019-02-28T02:08:24.628Z,55.10
2019-02-28T02:10:56.003Z,54.87
2019-02-28T02:13:22.897Z,54.63
2019-02-28T02:15:52.004Z,54.13
2019-02-28T02:18:20.407Z,54.45
2019-02-28T02:20:48.660Z,55.15
2019-02-28T02:23:18.105Z,55.54
2019-02-28T02:25:46.916Z,54.88
2019-02-28T02:28:15.202Z,55.60
2019-02-28T02:30:50.477Z,54.89
2019-02-28T02:33:14.425Z,55.18
2019-02-28T02:35:43.658Z,55.51
2019-02-28T02:38:11.900Z,55.47
2019-02-28T02:40:40.183Z,56.42
2019-02-28T02:43:08.488Z,56.30
2019-02-28T02:45:41.677Z,56.94
2019-02-28T02:48:06.950Z,56.26
2019-02-28T02:50:36.115Z,56.60
2019-02-28T02:53:05.549Z,56.70
2019-02-28T02:55:34.383Z,56.64
2019-02-28T02:58:02.680Z,56.19
2019-02-28T03:00:30.929Z,56.59
2019-02-28T03:02:59.216Z,55.75
2019-02-28T03:05:34.948Z,55.86
2019-02-28T03:08:00.086Z,56.17
2019-02-28T03:10:27.462Z,55.73
2019-02-28T03:12:55.718Z,55.09
2019-02-28T03:15:26.964Z,55.55
2019-02-28T03:17:53.991Z,55.86
2019-02-28T03:20:22.286Z,56.09
2019-02-28T03:22:50.543Z,55.82
2019-02-28T03:25:18.851Z,55.83
2019-02-28T03:27:47.080Z,55.83
2019-02-28T03:30:29.238Z,56.47
2019-02-28T03:32:51.346Z,55.06
2019-02-28T03:35:19.661Z,54.49
2019-02-28T03:37:47.874Z,54.57
2019-02-28T03:40:16.193Z,55.21
2019-02-28T03:42:44.453Z,54.72
2019-02-28T03:45:14.543Z,54.58
2019-02-28T03:47:42.821Z,54.21
2019-02-28T03:50:11.616Z,54.13
2019-02-28T03:52:43.759Z,54.59
2019-02-28T03:55:11.524Z,54.56
2019-02-28T03:57:39.783Z,55.25
2019-02-28T04:00:20.071Z,54.98
2019-02-28T04:02:48.324Z,54.59
2019-02-28T04:05:16.624Z,54.88
2019-02-28T04:07:52.981Z,54.08
2019-02-28T04:10:16.763Z,54.46
2019-02-28T04:12:46.859Z,54.45
2019-02-28T04:15:19.497Z,54.96
2019-02-28T04:17:47.759Z,56.76
2019-02-28T04:20:16.027Z,55.33
2019-02-28T04:22:44.287Z,55.41
2019-02-28T04:25:12.568Z,54.47
2019-02-28T04:27:41.794Z,55.32
2019-02-28T04:30:14.370Z,55.16
2019-02-28T04:32:42.627Z,55.16
2019-02-28T04:35:11.037Z,56.03
2019-02-28T04:37:44.881Z,54.86
2019-02-28T04:40:12.983Z,55.95
2019-02-28T04:42:41.252Z,55.44
2019-02-28T04:45:13.866Z,55.51
2019-02-28T04:47:42.239Z,56.52
2019-02-28T04:50:11.774Z,55.59
2019-02-28T04:52:40.015Z,55.34
2019-02-28T04:55:09.048Z,55.82
2019-02-28T04:57:37.299Z,54.78
2019-02-28T05:00:08.958Z,55.35
2019-02-28T05:02:37.222Z,54.71
2019-02-28T05:05:05.472Z,56.07
2019-02-28T05:07:34.104Z,55.31
2019-02-28T05:10:02.372Z,56.44
2019-02-28T05:12:30.661Z,56.49
2019-02-28T05:15:02.244Z,56.60
2019-02-28T05:17:28.959Z,55.69
2019-02-28T05:19:57.212Z,55.29
2019-02-28T05:22:27.565Z,56.30
2019-02-28T05:24:55.500Z,55.94
2019-02-28T05:27:24.518Z,55.72
2019-02-28T05:29:52.914Z,55.94
2019-02-28T05:32:21.167Z,56.49
2019-02-28T05:34:51.064Z,55.95
2019-02-28T05:37:19.638Z,55.62
2019-02-28T05:43:36.587Z,56.73
2019-02-28T05:46:04.839Z,56.52
2019-02-28T05:48:35.335Z,56.93
2019-02-28T05:51:03.100Z,57.04
2019-02-28T05:53:31.365Z,55.92
2019-02-28T05:55:59.990Z,56.94
2019-02-28T05:58:28.388Z,56.29
2019-02-28T06:00:56.655Z,56.71
2019-02-28T06:03:24.919Z,57.07
2019-02-28T06:05:53.187Z,57.42
2019-02-28T06:08:21.508Z,56.99
2019-02-28T06:10:49.745Z,56.67
2019-02-28T06:13:18.418Z,56.30
2019-02-28T06:15:47.172Z,56.97
2019-02-28T06:18:15.427Z,56.12
2019-02-28T06:20:43.695Z,55.49
2019-02-28T06:23:11.978Z,56.33
2019-02-28T06:25:40.242Z,55.92
2019-02-28T06:28:08.501Z,56.21
2019-02-28T06:30:36.761Z,56.83
2019-02-28T06:33:05.066Z,57.39
2019-02-28T06:35:33.406Z,55.91
2019-02-28T06:38:01.665Z,56.00
2019-02-28T06:40:32.593Z,55.03
2019-02-28T06:54:21.421Z,53.96
2019-02-28T06:56:49.675Z,54.39
2019-02-28T06:59:17.932Z,54.58
2019-02-28T07:01:46.218Z,54.00
2019-02-28T07:04:15.269Z,53.45
2019-02-28T07:06:43.575Z,52.65
2019-02-28T07:09:11.817Z,53.44
2019-02-28T07:11:40.101Z,53.09
2019-02-28T07:14:12.924Z,53.88
2019-02-28T07:16:38.396Z,53.26
2019-02-28T07:19:06.646Z,52.80
2019-02-28T07:21:34.943Z,53.14
2019-02-28T07:24:03.794Z,51.70
2019-02-28T07:26:32.131Z,51.59
2019-02-28T07:29:00.384Z,51.46
2019-02-28T07:31:28.668Z,51.14
2019-02-28T07:33:56.929Z,51.70
2019-02-28T07:36:25.203Z,51.97
2019-02-28T07:38:53.470Z,51.52
2019-02-28T07:41:26.211Z,52.43
2019-02-28T07:43:51.741Z,51.42
2019-02-28T07:46:20.006Z,51.71
2019-02-28T07:48:48.277Z,50.95
2019-02-28T07:51:18.536Z,51.28
2019-02-28T07:53:46.533Z,51.04
2019-02-28T07:56:14.799Z,51.69
2019-02-28T07:58:43.052Z,50.79
2019-02-28T08:01:11.337Z,50.12
2019-02-28T08:03:43.320Z,49.46
2019-02-28T08:06:09.579Z,49.70
2019-02-28T08:08:37.858Z,50.21
2019-02-28T08:11:06.126Z,49.87
2019-02-28T08:13:34.584Z,49.75
2019-02-28T08:16:04.404Z,50.07
2019-02-28T08:18:32.696Z,48.85
2019-02-28T08:21:00.950Z,47.90
2019-02-28T08:23:30.230Z,49.38
2019-02-28T08:25:59.218Z,48.50
2019-02-28T08:28:29.558Z,48.45
2019-02-28T08:30:57.486Z,48.81
2019-02-28T08:33:25.754Z,47.65
2019-02-28T08:35:54.041Z,47.72
2019-02-28T08:38:22.317Z,47.63
2019-02-28T08:40:51.589Z,47.32
2019-02-28T08:43:26.887Z,47.46
2019-02-28T08:45:49.931Z,46.93
2019-02-28T08:48:18.184Z,46.63
2019-02-28T08:50:46.472Z,47.17
2019-02-28T08:53:15.528Z,45.70
2019-02-28T08:55:44.656Z,46.62
2019-02-28T08:58:12.911Z,46.30
2019-02-28T09:00:41.267Z,46.64
2019-02-28T09:03:09.552Z,48.23
2019-02-28T09:05:37.821Z,47.81
2019-02-28T09:08:06.105Z,47.21
2019-02-28T09:10:34.372Z,45.87
2019-02-28T09:13:07.785Z,45.86
2019-02-28T09:15:32.646Z,46.34
2019-02-28T09:18:00.939Z,45.93
2019-02-28T09:20:29.216Z,43.23
2019-02-28T09:23:01.518Z,43.52
2019-02-28T09:25:27.487Z,42.36
2019-02-28T09:27:55.754Z,42.47
2019-02-28T09:30:39.255Z,42.39
2019-02-28T09:33:07.519Z,42.11
2019-02-28T09:35:35.782Z,42.53
2019-02-28T09:38:07.629Z,42.07
2019-02-28T09:40:34.104Z,42.71
2019-02-28T09:43:02.402Z,41.29
2019-02-28T09:45:31.705Z,40.00
2019-02-28T09:48:02.015Z,40.93
2019-02-28T09:50:29.985Z,39.78
2019-02-28T09:52:58.247Z,39.31
2019-02-28T09:55:26.544Z,40.09
2019-02-28T09:57:55.127Z,39.06
2019-02-28T10:00:24.878Z,39.41
2019-02-28T10:02:53.217Z,39.34
2019-02-28T10:05:21.500Z,39.60
2019-02-28T10:07:49.789Z,38.27
2019-02-28T10:10:32.509Z,38.95
2019-02-28T10:13:00.799Z,38.54
2019-02-28T10:15:29.055Z,39.44
2019-02-28T10:17:57.337Z,38.43
2019-02-28T10:20:28.698Z,37.37
2019-02-28T10:22:57.093Z,36.79
2019-02-28T10:25:25.450Z,36.62
2019-02-28T10:27:54.631Z,36.91
2019-02-28T10:30:31.738Z,36.52
2019-02-28T10:32:56.971Z,37.37
2019-02-28T10:35:25.266Z,39.36
2019-02-28T10:37:57.382Z,38.23
2019-02-28T10:40:31.590Z,38.59
2019-02-28T10:42:59.866Z,38.69
2019-02-28T10:45:28.200Z,38.33
2019-02-28T10:47:56.473Z,37.41
2019-02-28T10:50:32.186Z,38.21
2019-02-28T10:53:04.042Z,38.43
2019-02-28T10:55:28.220Z,37.86
2019-02-28T10:57:56.495Z,37.79
2019-02-28T11:00:32.926Z,36.91
2019-02-28T11:03:01.946Z,35.21
2019-02-28T11:05:32.730Z,34.04
2019-02-28T11:08:01.551Z,33.68
2019-02-28T11:10:34.784Z,30.49
2019-02-28T11:13:01.442Z,31.04
2019-02-28T11:15:30.381Z,35.71
2019-02-28T11:17:58.669Z,35.10
2019-02-28T11:20:27.151Z,30.71
2019-02-28T11:22:55.465Z,30.34
2019-02-28T11:25:25.458Z,30.67
2019-02-28T11:27:54.584Z,29.98
2019-02-28T11:30:25.682Z,30.87
2019-02-28T11:32:53.970Z,30.80
2019-02-28T11:35:23.232Z,29.98
2019-02-28T11:37:52.194Z,28.53
2019-02-28T11:40:22.587Z,29.67
2019-02-28T11:42:50.837Z,30.64
2019-02-28T11:45:25.537Z,28.86
2019-02-28T11:47:55.485Z,29.18
2019-02-28T11:50:23.771Z,29.49
2019-02-28T11:52:52.030Z,29.32
2019-02-28T11:55:21.288Z,29.75
2019-02-28T11:57:49.906Z,29.71
2019-02-28T12:00:27.367Z,30.37
2019-02-28T12:02:59.704Z,30.27
2019-02-28T12:05:25.861Z,30.42
2019-02-28T12:07:54.151Z,31.34
2019-02-28T12:10:22.442Z,30.81
2019-02-28T12:12:51.016Z,30.97
2019-02-28T12:15:22.695Z,31.10
2019-02-28T12:17:51.053Z,31.29
2019-02-28T12:20:19.308Z,31.16
2019-02-28T12:22:49.326Z,31.27
2019-02-28T12:25:21.394Z,31.15
2019-02-28T12:27:49.663Z,31.99
2019-02-28T12:30:25.191Z,31.10
2019-02-28T12:32:53.664Z,31.21
2019-02-28T12:35:21.927Z,31.41
2019-02-28T12:37:50.196Z,31.32
2019-02-28T12:40:24.971Z,31.86
2019-02-28T12:42:53.263Z,31.71
2019-02-28T12:45:27.478Z,32.33
2019-02-28T12:47:55.759Z,32.07
2019-02-28T12:50:24.020Z,31.44
2019-02-28T12:52:52.349Z,31.47
2019-02-28T12:55:21.650Z,31.30
2019-02-28T12:57:51.612Z,32.08
2019-02-28T13:00:31.579Z,30.85
2019-02-28T13:02:59.903Z,31.70
2019-02-28T13:05:28.176Z,32.05
2019-02-28T13:07:57.011Z,32.51
2019-02-28T13:10:28.101Z,31.54
2019-02-28T13:13:05.529Z,31.67
2019-02-28T13:15:25.572Z,31.32
2019-02-28T13:17:53.836Z,32.12
2019-02-28T13:20:32.208Z,31.84
2019-02-28T13:22:59.482Z,31.59
2019-02-28T13:25:27.604Z,31.81
2019-02-28T13:27:55.899Z,32.13
2019-02-28T13:30:26.296Z,31.69
2019-02-28T13:32:54.652Z,31.66
2019-02-28T13:35:31.629Z,31.39
2019-02-28T13:37:59.933Z,31.81
2019-02-28T13:40:28.199Z,31.80
2019-02-28T13:42:56.484Z,31.68
2019-02-28T13:45:25.513Z,31.50
2019-02-28T13:47:53.780Z,32.04
2019-02-28T13:50:32.514Z,32.28
2019-02-28T13:53:03.339Z,31.87
2019-02-28T13:55:31.150Z,32.23
2019-02-28T13:57:59.424Z,32.38
2019-02-28T14:00:29.608Z,31.83
2019-02-28T14:03:09.493Z,32.19
2019-02-28T14:05:40.997Z,31.93
2019-02-28T14:08:10.972Z,32.37
2019-02-28T14:10:38.816Z,32.13
2019-02-28T14:13:07.348Z,31.77
2019-02-28T14:15:41.642Z,31.50
2019-02-28T14:18:10.881Z,31.16
2019-02-28T14:20:39.851Z,31.64
2019-02-28T14:23:08.114Z,32.24
2019-02-28T14:25:39.721Z,31.78
2019-02-28T14:28:06.385Z,32.45
2019-02-28T14:30:34.659Z,32.00
2019-02-28T14:33:02.939Z,31.86
2019-02-28T14:35:38.317Z,32.02
2019-02-28T14:38:11.732Z,31.87
2019-02-28T14:40:42.136Z,32.28
2019-02-28T14:43:10.437Z,32.58
2019-02-28T14:45:46.504Z,33.21
2019-02-28T14:48:15.381Z,31.90
2019-02-28T14:50:44.817Z,32.35
2019-02-28T14:53:17.659Z,32.22
2019-02-28T14:55:51.140Z,31.76
2019-02-28T14:58:22.447Z,32.74
2019-02-28T15:00:51.749Z,33.41
2019-02-28T15:03:29.187Z,33.21
2019-02-28T15:05:56.458Z,33.14
2019-02-28T15:08:24.716Z,33.29
2019-02-28T15:10:53.279Z,33.84
2019-02-28T15:13:21.516Z,33.68
2019-02-28T15:15:53.237Z,33.91
2019-02-28T15:18:19.789Z,34.47
2019-02-28T15:20:48.098Z,34.13
2019-02-28T15:23:16.368Z,33.98
2019-02-28T15:25:44.628Z,33.87
2019-02-28T15:28:13.860Z,34.75
2019-02-28T15:30:42.958Z,34.46
2019-02-28T15:33:11.238Z,34.44
2019-02-28T15:35:39.501Z,34.85
2019-02-28T15:38:09.149Z,34.57
2019-02-28T15:40:43.692Z,34.61
2019-02-28T15:43:17.190Z,34.93
2019-02-28T15:45:42.028Z,35.02
2019-02-28T15:48:10.289Z,34.89
2019-02-28T15:50:38.546Z,35.04
2019-02-28T15:53:07.769Z,34.57
2019-02-28T15:55:36.580Z,34.65
2019-02-28T15:58:05.863Z,34.79
2019-02-28T16:00:36.210Z,34.77
2019-02-28T16:03:04.651Z,34.82
2019-02-28T16:05:32.938Z,35.10
2019-02-28T16:08:01.219Z,35.29
2019-02-28T16:10:31.922Z,35.10
2019-02-28T16:13:01.099Z,35.44
2019-02-28T16:15:29.404Z,35.43
2019-02-28T16:17:57.668Z,35.76
2019-02-28T16:20:28.694Z,36.02
2019-02-28T16:22:56.787Z,36.10
2019-02-28T16:25:31.034Z,36.41
2019-02-28T16:27:59.329Z,35.97
2019-02-28T16:30:28.759Z,36.65
2019-02-28T16:32:57.618Z,36.93
2019-02-28T16:35:25.982Z,37.06
2019-02-28T16:37:54.257Z,37.85
2019-02-28T16:40:27.740Z,38.26
2019-02-28T16:42:56.020Z,38.42
2019-02-28T16:45:33.406Z,39.03
2019-02-28T16:48:03.354Z,39.00
2019-02-28T16:50:31.649Z,39.78
2019-02-28T16:52:59.942Z,40.95
2019-02-28T16:55:31.026Z,41.30
2019-02-28T16:57:58.249Z,41.72
2019-02-28T17:00:26.569Z,41.93
2019-02-28T17:02:54.870Z,42.18
2019-02-28T17:05:26.615Z,42.50
2019-02-28T17:07:53.237Z,42.89
2019-02-28T17:10:23.802Z,43.44
2019-02-28T17:13:09.849Z,42.71
2019-02-28T17:15:39.788Z,43.58
2019-02-28T17:20:40.627Z,42.91
2019-02-28T17:23:07.675Z,42.53
2019-02-28T17:25:35.940Z,42.84
2019-02-28T17:28:08.811Z,43.18
2019-02-28T17:30:47.760Z,43.87
2019-02-28T17:33:16.126Z,43.71
2019-02-28T17:35:44.383Z,43.44
2019-02-28T17:38:12.671Z,43.62
2019-02-28T17:40:40.960Z,43.93
2019-02-28T17:43:09.262Z,44.56
2019-02-28T17:45:37.512Z,44.58
2019-02-28T17:48:27.190Z,44.93
2019-02-28T17:51:09.198Z,45.28
2019-02-28T17:53:59.013Z,45.05
2019-02-28T17:56:37.550Z,45.20
2019-02-28T17:59:17.264Z,45.55
2019-02-28T18:02:11.909Z,46.29
2019-02-28T18:05:13.954Z,46.29
2019-02-28T18:08:08.434Z,46.37
2019-02-28T18:11:11.871Z,46.95
2019-02-28T18:13:55.314Z,47.15
2019-02-28T18:16:47.167Z,47.18
2019-02-28T18:19:38.431Z,46.57
2019-02-28T18:22:16.034Z,47.67
2019-02-28T18:25:01.356Z,47.78
2019-02-28T18:27:43.734Z,47.36
2019-02-28T18:30:30.406Z,48.09
2019-02-28T18:32:58.692Z,47.75
2019-02-28T18:35:29.131Z,46.65
2019-02-28T18:37:57.429Z,46.88
2019-02-28T18:40:26.934Z,46.69
2019-02-28T18:42:55.235Z,47.71
2019-02-28T18:45:23.760Z,48.42
2019-02-28T18:47:52.352Z,48.46
2019-02-28T18:50:20.644Z,48.52
2019-02-28T18:52:48.900Z,48.53
2019-02-28T18:55:17.157Z,48.56
2019-02-28T18:57:45.455Z,48.01
2019-02-28T19:00:16.602Z,49.01
2019-02-28T19:02:44.920Z,48.73
2019-02-28T19:05:13.198Z,48.36
2019-02-28T19:07:41.455Z,47.76
2019-02-28T19:10:10.393Z,48.05
2019-02-28T19:12:38.670Z,48.56
2019-02-28T19:15:16.093Z,48.48
2019-02-28T19:17:44.390Z,47.99
2019-02-28T19:20:14.290Z,48.47
2019-02-28T19:22:42.575Z,48.23
2019-02-28T19:25:14.215Z,48.77
2019-02-28T19:27:42.507Z,48.54
2019-02-28T19:30:13.860Z,48.92
2019-02-28T19:32:42.174Z,49.39
2019-02-28T19:35:10.454Z,49.83
2019-02-28T19:37:38.699Z,50.43
2019-02-28T19:40:09.729Z,49.71
2019-02-28T19:42:37.993Z,49.63
2019-02-28T19:45:20.945Z,49.12
2019-02-28T19:47:49.194Z,49.41
2019-02-28T19:50:17.466Z,48.67
2019-02-28T19:52:45.744Z,49.71
2019-02-28T19:55:15.179Z,50.05
2019-02-28T19:57:43.452Z,49.25
2019-02-28T20:00:17.350Z,48.40
2019-02-28T20:02:45.694Z,49.24
2019-02-28T20:05:14.024Z,48.83
2019-02-28T20:07:42.320Z,49.05
2019-02-28T20:10:15.896Z,49.24
2019-02-28T20:12:44.187Z,49.74
2019-02-28T20:15:15.384Z,50.04
2019-02-28T20:17:43.672Z,50.01
2019-02-28T20:20:14.808Z,49.79
2019-02-28T20:22:43.106Z,49.84
2019-02-28T20:25:13.015Z,49.39
2019-02-28T20:27:41.285Z,48.68
2019-02-28T20:30:17.816Z,49.05
2019-02-28T20:32:46.076Z,49.39
2019-02-28T20:35:15.734Z,49.51
2019-02-28T20:37:43.993Z,49.04
2019-02-28T20:40:20.644Z,49.19
2019-02-28T20:42:48.908Z,49.38
2019-02-28T20:45:17.195Z,48.80
2019-02-28T20:47:45.462Z,49.50
2019-02-28T20:50:19.744Z,48.88
2019-02-28T20:52:48.008Z,48.48
2019-02-28T20:55:16.298Z,48.60
2019-02-28T20:57:44.577Z,49.16
2019-02-28T21:00:17.248Z,49.93
2019-02-28T21:02:45.542Z,49.89
2019-02-28T21:05:16.585Z,49.36
2019-02-28T21:07:44.882Z,50.16
2019-02-28T21:10:13.145Z,50.35
2019-02-28T21:12:41.437Z,50.09
2019-02-28T21:15:11.444Z,50.12
2019-02-28T21:17:47.532Z,50.32
2019-02-28T21:20:16.726Z,50.37
2019-02-28T21:22:44.994Z,50.37
2019-02-28T21:25:18.193Z,51.55
2019-02-28T21:27:46.461Z,51.71
2019-02-28T21:30:19.563Z,52.46
2019-02-28T21:32:47.833Z,51.51
2019-02-28T21:35:17.035Z,52.15
2019-02-28T21:37:46.435Z,52.04
2019-02-28T21:40:18.944Z,51.50
2019-02-28T21:42:47.210Z,52.66
2019-02-28T21:45:17.520Z,53.04
2019-02-28T21:47:45.791Z,52.47
2019-02-28T21:50:15.803Z,53.67
2019-02-28T21:52:44.061Z,53.27
2019-02-28T21:55:13.979Z,53.21
2019-02-28T21:57:42.271Z,54.25
2019-02-28T22:00:16.245Z,53.91
2019-02-28T22:02:44.523Z,53.32
2019-02-28T22:05:13.651Z,52.77
2019-02-28T22:07:42.021Z,53.98
2019-02-28T22:10:12.675Z,54.38
2019-02-28T22:12:40.927Z,54.95
2019-02-28T22:15:11.734Z,55.00
2019-02-28T22:17:40.160Z,53.79
2019-02-28T22:20:10.589Z,53.08
2019-02-28T22:22:38.845Z,53.71
2019-02-28T22:25:09.386Z,53.61
2019-02-28T22:27:37.645Z,53.74
2019-02-28T22:30:16.630Z,53.93
2019-02-28T22:32:46.689Z,53.76
2019-02-28T22:35:16.827Z,54.15
2019-02-28T22:37:45.127Z,54.10
2019-02-28T22:40:13.389Z,52.60
2019-02-28T22:42:41.509Z,52.69
2019-02-28T22:45:09.774Z,52.48
2019-02-28T22:47:38.064Z,52.23
2019-02-28T22:50:08.465Z,51.90
2019-02-28T22:52:36.759Z,52.11
2019-02-28T22:55:07.362Z,51.94
2019-02-28T22:57:35.656Z,51.47
2019-02-28T23:00:05.550Z,51.66
2019-02-28T23:02:33.878Z,51.25
2019-02-28T23:05:02.131Z,51.67
2019-02-28T23:07:30.394Z,52.27
2019-02-28T23:10:00.716Z,52.30
2019-02-28T23:12:28.981Z,53.33
2019-02-28T23:14:57.270Z,53.43
2019-02-28T23:17:25.535Z,53.81
2019-02-28T23:19:53.804Z,53.25
2019-02-28T23:22:23.198Z,54.04
2019-02-28T23:24:51.489Z,53.65
2019-02-28T23:27:19.794Z,53.57
2019-02-28T23:29:51.280Z,53.04
2019-02-28T23:32:34.903Z,53.75
2019-02-28T23:35:04.034Z,52.71
2019-02-28T23:37:32.324Z,55.03
2019-02-28T23:40:00.582Z,54.25
2019-02-28T23:42:28.875Z,54.28
2019-02-28T23:44:57.132Z,54.18
2019-02-28T23:47:25.389Z,54.06
2019-02-28T23:49:53.655Z,54.08
2019-02-28T23:52:21.917Z,54.22
2019-02-28T23:54:50.203Z,54.86
2019-02-28T23:57:18.466Z,53.74
2019-02-28T23:59:46.746Z,53.75
